Airfield :







YOU CAN JOIN US ON...

 
LOGIN :

Register | Disclaimer

   EN    FR    IT 

 









Legend :    VFR   Marginal VFR   IFR   Intensive IFR   Very Intensive IFR
Visi :
Ceiling :
>= 8 km
>= 3000ft
5 to 8 km
1000 to 3000 ft
1500m to 5 km
500 to 1000 ft
800 to 1500m
200 to 500 ft
< 800m
< 200 ft
Symbols :   Thunderstorms  Fog  Heavy snow  Heavy precipitations  Wind > 20 kt






- Airport Elevation : 603 ft
- IATA code : LEB


KLEB - Lebanon Municipal

CURRENT METAR :
  • 080853Z AUTO 00000KT 10SM CLR M18/M22 A3047 RMK AO2 SLP338 T11831222 50009

EXPIRED METARs :
  • 080821Z AUTO 00000KT 5SM HZ FEW003 M18/M22 A3048 RMK AO2 T11781217
  • 080753Z AUTO 00000KT 9SM CLR M18/M22 A3047 RMK AO2 SLP337 T11781222
  • 080653Z AUTO 00000KT 10SM CLR M19/M22 A3046 RMK AO2 SLP333 T11891222

TAF KLEB
Valid from the 08 at 06:00 until the 09 at 06:00 UTC


080520Z 0806/0906 00000KT P6SM SKC
FM081700 19005KT P6SM BKN200



MET'MAP, your aeronautical weather chart ! - Copyright ORBIFLY December 2007 - Disclaimer

ORBIFLY MET'MAP TEAM :

Programming & Development : Alexandra Zaïnal
Concept & original design : Baudouin d'Aumeries
Assistance for programming : Marc-Olivier Méhu
Technical & hardware support : Manuel Goepfert

Contact : metmap@orbifly.com




SOURCES & CREDITS :

   NOAA